Hauptseite
METAR-TAF:

METAR-TAF

Flughäfen :

Flughafen Karlsbad

Karlsbad, Tschechien

Breite: 50-12N, Länge: 012-55E, Höhe: 603 m

Beobachtung

Neuester Wetterbericht von vor 30 Minuten, um 18:30 UTC
Wind 3 kt aus Südost
Temperatur 18°C
Luftfeuchtigkeit 56%
Luftdruck 1020 hPa
Sichtweite 10 km oder mehr
keine Wolken unter 1500 m und keine Kumulonimbus oder Gewitterwolken

METAR: LKKV 051830Z 13003KT CAVOK 18/09 Q1020

Zeit: 21:00 (19:00 UTC)

Prognose

Neuester Wetterbericht von vor 2 Stunden und 0 Minuten, um 17:00 UTC
Gültige Prognose vom 05 um 18 UTC bis 07 um 00 UTC
Wind 2 kt aus unterschiedlichen Richtungen
Sichtweite 10 km oder mehr
keine Wolken unter 1500 m und keine Kumulonimbus oder Gewitterwolken
Zeitweise
vom 05 um 18 UTC bis 06 um 18 UTC
Wind 8 kt aus Ost
Sichtweite 10 km oder mehr
Aufgelockert bewölkt in der Höhe von 4000 ft

TAF: LKKV 051700Z 0518/0700 VRB02KT CAVOK TEMPO 0518/0618 09008KT 9999 SCT040

Wetterbeobachtungen und Prognosen von mehr als 4000 Flughäfen (METAR und TAF Bericht).

Die verfügbaren Stationen werden durch gelbe und rote Markierungen auf der Karte dargestellt.

Führen Sie die Maus auf sie, um den Namen der Station zu sehen.

Darauf klicken, um die Beobachtung von Wetterbeobachtungen und Prognosen zu sehen.

Um die Karte zu ändern : klicken Sie auf den grünen Tasten mit einem schwarzen Kreuz Zum Vergrößern, auf den grünen Button mit einem Gedankenstrich zu verkleinern, oder auf die grünen Pfeile für benachbarte Karten.


METAR-TAF: